Alfred, North Dakota
Current Conditions -  °F | °C
As of 8:18 PM on Monday 22 Dec 2014 (Local Time) from KJMS Reporting Station
Haze Haze  
Wind Chill: -4°   Ceiling: 300
Heat Index:   Visibility: 0.75mi
Dew Point:   Wind: 12mph
Humidity: 96%   Direction: 30°NNE
Pressure: 29.62"   Gusts: NA
Location:  46.4882°N, 98.8135°W
Report Text: KJMS 230218Z AUTO 03010KT 3/4SM BR VV003 01/01 A2962 RMK AO2 RAE02 P0000 T00110006
Loading
Personal Weather Stations






























Interactive Weather Map New forecast layout! Learn more

10-Day Weather Forecast

Advertisements
Track Severe Weather on mobile